Weather at Wingfield Mesa Landing Strip [CLOSED]

Public forecast

Using degrees Fahrenheit for public forecast. Weather courtesy of forecast.io.

Closest aviation weather report (METAR) to Wingfield Mesa Landing Strip

Closest report is Sedona Airport, 21.5 nm (39.9 km) N. Retrieved 2021/06/13 17:35 UTC (0 seconds ago):

KSEZ 131735Z AUTO 13009KT 10SM CLR 35/M11 A3014 RMK AO2

Closest aviation forecast (TAF) to Wingfield Mesa Landing Strip

Closest forecast is Sedona Airport, 21.5 nm (39.9 km) N. Retrieved 2021/06/13 12:22 UTC (5 hours ago):

TAF KSEZ 131120Z 1312/1412 03011KT P6SM SKC FM131800 20012G20KT P6SM SKC FM140300 04011KT P6SM SKC